Am Qui, Tennessee
Current Conditions -  °F | °C
As of 2:53 PM on Thursday 23 Oct 2014 (Local Time) from KBNA Reporting Station
Broken Clouds Broken Clouds  
Wind Chill: 64°   Ceiling: 25000
Heat Index: 64°   Visibility: 10mi
Dew Point: 40°   Wind: 6mph
Humidity: 41%   Direction: 10°N
Pressure: 30.12"   Gusts: NA
Location:  36.2555°N, 86.6973°W
Report Text: KBNA 231953Z 01005KT 10SM BKN250 18/04 A3012 RMK AO2 SLP198 T01780044
Loading
Personal Weather Stations






























Interactive Weather Map New forecast layout! Learn more

10-Day Weather Forecast

Advertisements
Track Severe Weather on mobile